Time;durP1;ratioP1;P1;durP2;ratioP2;P2;SDS_P1;SDS_P2;PMS_P1;PMS_P2;Temp;Humidity;BMP_temperature;BMP_pressure;BME280_temperature;BME280_humidity;BME280_pressure;Samples;Min_cycle;Max_cycle;Signal;HPM_P1;HPM_P2
2021/12/12 00:01:45;;;;;;;31.35;17.30;;;4.70;99.90;;;;;;4924925;29;20048;-79
2021/12/12 00:04:16;;;;;;;31.95;16.58;;;4.70;99.90;;;;;;4916859;29;20134;-78
2021/12/12 00:06:56;;;;;;;32.92;16.13;;;5.10;99.90;;;;;;4925667;29;20086;-78
2021/12/12 00:09:27;;;;;;;33.13;17.67;;;4.70;99.90;;;;;;4926417;29;20055;-79
2021/12/12 00:11:53;;;;;;;30.08;16.35;;;4.70;99.90;;;;;;4942572;28;20051;-79
2021/12/12 00:14:33;;;;;;;32.63;17.25;;;4.70;99.90;;;;;;4909911;29;20079;-78
2021/12/12 00:16:59;;;;;;;31.73;16.88;;;5.30;99.90;;;;;;4925945;29;20549;-78
2021/12/12 00:19:26;;;;;;;30.55;17.67;;;4.80;99.90;;;;;;4931279;29;20055;-78
2021/12/12 00:21:56;;;;;;;28.92;17.00;;;4.80;99.90;;;;;;4929112;29;20090;-78
2021/12/12 00:24:23;;;;;;;34.10;18.15;;;4.80;99.90;;;;;;4925391;29;20059;-78
2021/12/12 00:26:51;;;;;;;29.33;16.52;;;4.80;99.90;;;;;;4930048;29;20051;-79
2021/12/12 00:29:20;;;;;;;35.25;16.63;;;4.80;99.90;;;;;;4930779;29;20051;-79
2021/12/12 00:31:49;;;;;;;34.13;16.67;;;4.90;99.90;;;;;;4924446;29;20091;-79
2021/12/12 00:34:15;;;;;;;31.27;17.65;;;4.80;99.90;;;;;;4925058;29;20448;-78
2021/12/12 00:36:42;;;;;;;31.40;17.20;;;4.90;99.90;;;;;;4925334;29;20449;-78
2021/12/12 00:39:13;;;;;;;36.58;17.33;;;4.80;99.90;;;;;;4925231;29;20158;-78
2021/12/12 00:41:54;;;;;;;33.05;16.48;;;4.80;99.90;;;;;;4929481;29;20050;-78
2021/12/12 00:44:20;;;;;;;33.30;18.67;;;4.80;99.90;;;;;;4924513;29;20041;-79
2021/12/12 00:46:47;;;;;;;32.75;16.75;;;4.80;99.90;;;;;;4906881;29;20792;-79
2021/12/12 00:49:15;;;;;;;29.30;15.50;;;4.80;99.90;;;;;;4922356;29;20146;-78
2021/12/12 00:51:44;;;;;;;32.90;15.77;;;4.80;99.90;;;;;;4923948;29;20047;-78
2021/12/12 00:54:12;;;;;;;32.38;16.38;;;4.80;99.90;;;;;;4940489;29;20062;-78
2021/12/12 00:56:38;;;;;;;32.83;17.33;;;4.80;99.90;;;;;;4924223;29;20054;-78
2021/12/12 00:59:05;;;;;;;31.83;16.35;;;4.90;99.90;;;;;;4922892;29;20396;-78
2021/12/12 01:01:35;;;;;;;31.75;16.33;;;4.90;99.90;;;;;;4904304;29;20047;-79
2021/12/12 01:04:10;;;;;;;32.10;16.60;;;4.90;99.90;;;;;;4924741;29;20050;-78
2021/12/12 01:06:36;;;;;;;35.35;15.95;;;4.80;99.90;;;;;;4939710;28;20402;-79
2021/12/12 01:09:09;;;;;;;34.28;16.45;;;5.30;99.90;;;;;;4908098;29;20065;-78
2021/12/12 01:11:40;;;;;;;30.15;16.58;;;4.90;99.90;;;;;;4925794;29;20477;-78
2021/12/12 01:14:10;;;;;;;32.50;16.75;;;4.90;99.90;;;;;;4924331;29;20836;-78
2021/12/12 01:16:47;;;;;;;30.77;16.65;;;5.00;99.90;;;;;;4923943;29;20047;-79
2021/12/12 01:19:36;;;;;;;35.00;15.27;;;4.90;99.90;;;;;;4931143;29;20122;-79
2021/12/12 01:22:07;;;;;;;29.67;15.75;;;4.90;99.90;;;;;;4928701;29;20501;-78
2021/12/12 01:24:37;;;;;;;31.10;16.83;;;5.10;99.90;;;;;;4923822;29;20047;-78
2021/12/12 01:27:05;;;;;;;37.80;16.83;;;5.00;99.90;;;;;;4924945;29;20043;-79
2021/12/12 01:29:31;;;;;;;33.55;16.10;;;5.90;99.90;;;;;;4922880;29;20050;-79
2021/12/12 01:32:01;;;;;;;30.70;16.00;;;5.00;99.90;;;;;;4940778;28;20046;-79
2021/12/12 01:34:30;;;;;;;31.50;16.00;;;5.00;99.90;;;;;;4921665;29;20062;-78
2021/12/12 01:39:58;;;;;;;;;;;5.00;99.90;;;;;;4922013;29;20498;-79
2021/12/12 01:42:36;;;;;;;33.50;15.85;;;5.00;99.90;;;;;;4925689;29;19922;-79
2021/12/12 01:45:08;;;;;;;34.95;15.73;;;5.00;99.90;;;;;;4929036;29;20429;-79
2021/12/12 01:47:59;;;;;;;27.27;15.27;;;5.00;99.90;;;;;;4939879;29;20047;-79
2021/12/12 01:50:36;;;;;;;30.08;16.50;;;5.10;99.90;;;;;;4941318;29;20087;-77
2021/12/12 01:53:05;;;;;;;32.78;16.10;;;5.10;99.90;;;;;;4924748;29;20200;-77
2021/12/12 01:55:39;;;;;;;30.27;16.75;;;5.10;99.90;;;;;;4923129;29;20158;-77
2021/12/12 01:58:14;;;;;;;35.60;16.50;;;5.10;99.90;;;;;;4924593;29;20052;-77
2021/12/12 02:00:52;;;;;;;34.47;18.65;;;5.10;99.90;;;;;;4923455;29;20051;-77
2021/12/12 02:03:22;;;;;;;33.58;17.42;;;5.20;99.90;;;;;;4930392;29;20048;-77
2021/12/12 02:05:49;;;;;;;30.27;16.40;;;5.10;99.90;;;;;;4922908;29;20059;-77
2021/12/12 02:08:17;;;;;;;29.70;15.82;;;5.10;99.90;;;;;;4913139;28;20126;-78
2021/12/12 02:10:51;;;;;;;32.50;18.50;;;5.10;99.90;;;;;;4930073;29;20070;-78
2021/12/12 02:13:19;;;;;;;32.35;18.88;;;6.40;99.90;;;;;;4927947;29;20205;-78
2021/12/12 02:15:49;;;;;;;40.17;19.15;;;5.10;99.90;;;;;;4918294;29;20055;-77
2021/12/12 02:18:24;;;;;;;34.63;20.40;;;5.10;99.90;;;;;;4928050;29;20050;-78
2021/12/12 02:21:20;;;;;;;33.25;17.73;;;5.20;99.90;;;;;;4926729;29;20051;-78
2021/12/12 02:24:13;;;;;;;40.13;19.73;;;5.20;99.90;;;;;;4927413;29;20466;-77
2021/12/12 02:35:18;;;;;;;35.72;18.65;;;5.20;99.90;;;;;;4926717;29;20062;-80
2021/12/12 02:37:46;;;;;;;33.15;18.13;;;5.30;99.90;;;;;;4927351;29;20054;-80
2021/12/12 02:40:25;;;;;;;32.53;18.40;;;5.20;99.90;;;;;;4932207;29;20073;-81
2021/12/12 02:42:52;;;;;;;29.88;17.25;;;5.20;99.90;;;;;;4932664;29;20060;-81
2021/12/12 02:45:19;;;;;;;29.90;17.58;;;5.20;99.90;;;;;;4927002;29;20043;-80
2021/12/12 02:47:56;;;;;;;31.80;17.15;;;5.20;99.90;;;;;;4907938;29;20047;-81
2021/12/12 02:50:28;;;;;;;31.25;17.02;;;5.60;99.90;;;;;;4927508;29;20561;-81
2021/12/12 02:53:04;;;;;;;30.70;18.02;;;5.20;99.90;;;;;;4926603;29;20043;-81
2021/12/12 02:55:34;;;;;;;34.73;18.30;;;5.30;99.90;;;;;;4932247;28;20063;-78
2021/12/12 02:58:01;;;;;;;30.15;18.17;;;5.30;99.90;;;;;;4926870;29;20049;-78
2021/12/12 03:00:30;;;;;;;27.27;16.75;;;5.20;99.90;;;;;;4926551;29;20055;-77
2021/12/12 03:02:59;;;;;;;27.23;16.48;;;5.30;99.90;;;;;;4931791;29;20079;-79
2021/12/12 03:05:29;;;;;;;27.88;17.55;;;5.20;99.90;;;;;;4938568;29;20065;-77
2021/12/12 03:07:55;;;;;;;34.42;18.33;;;5.30;99.90;;;;;;4923157;29;20379;-78
2021/12/12 03:10:26;;;;;;;30.25;16.38;;;5.50;99.90;;;;;;4924027;29;20055;-78
2021/12/12 03:12:53;;;;;;;27.85;17.17;;;5.50;99.90;;;;;;4923526;29;20047;-77
2021/12/12 03:15:31;;;;;;;37.38;18.45;;;5.30;99.90;;;;;;4920041;29;20056;-77
2021/12/12 03:18:00;;;;;;;31.45;16.67;;;5.30;99.90;;;;;;4924399;29;20063;-78
2021/12/12 03:20:34;;;;;;;27.40;16.77;;;5.30;99.90;;;;;;4936569;29;20064;-77
2021/12/12 03:23:21;;;;;;;32.75;17.33;;;5.30;99.90;;;;;;4911604;29;20047;-78
2021/12/12 03:25:49;;;;;;;;;;;5.30;99.90;;;;;;4923454;29;20058;-77
2021/12/12 03:28:20;;;;;;;23.42;15.10;;;5.30;99.90;;;;;;4928316;29;19934;-78
2021/12/12 03:30:48;;;;;;;31.77;18.17;;;5.30;99.90;;;;;;4918589;29;20055;-77
2021/12/12 03:33:14;;;;;;;29.90;17.65;;;5.30;99.90;;;;;;4912577;29;20048;-78
2021/12/12 03:35:40;;;;;;;34.83;19.13;;;5.30;99.90;;;;;;4923250;29;20081;-78
2021/12/12 03:38:06;;;;;;;29.08;17.35;;;5.30;99.90;;;;;;4897089;29;20059;-77
2021/12/12 03:40:37;;;;;;;30.35;16.85;;;5.40;99.90;;;;;;4924045;29;20055;-78
2021/12/12 03:43:08;;;;;;;29.42;18.02;;;5.80;99.90;;;;;;4921861;29;20102;-77
2021/12/12 03:45:35;;;;;;;28.20;18.35;;;5.30;99.90;;;;;;4906374;29;20044;-77
2021/12/12 03:48:27;;;;;;;26.42;16.75;;;5.30;99.90;;;;;;4928258;29;20050;-78
2021/12/12 03:50:55;;;;;;;26.67;17.88;;;5.30;99.90;;;;;;4922338;29;20052;-78
2021/12/12 03:53:21;;;;;;;27.15;17.35;;;5.50;99.90;;;;;;4903795;29;20466;-77
2021/12/12 03:55:49;;;;;;;30.38;17.45;;;5.30;99.90;;;;;;4908941;29;20048;-77
2021/12/12 03:58:15;;;;;;;25.55;17.35;;;5.30;99.90;;;;;;4927603;29;20123;-77
2021/12/12 04:01:03;;;;;;;26.70;18.60;;;5.30;99.90;;;;;;4921910;29;20051;-77
2021/12/12 04:03:29;;;;;;;31.95;18.45;;;5.30;99.90;;;;;;4923892;29;20076;-77
2021/12/12 04:06:00;;;;;;;31.35;17.92;;;5.30;99.90;;;;;;4919279;29;20095;-77
2021/12/12 04:08:29;;;;;;;29.83;17.67;;;5.80;99.90;;;;;;4923653;29;20062;-80
2021/12/12 04:10:55;;;;;;;26.65;17.65;;;5.30;99.90;;;;;;4937936;29;20052;-80
2021/12/12 04:13:21;;;;;;;26.60;17.55;;;5.50;99.90;;;;;;4903233;29;20132;-80
2021/12/12 04:15:55;;;;;;;28.10;18.98;;;5.30;99.90;;;;;;4905167;29;20068;-80
2021/12/12 04:18:25;;;;;;;31.83;19.70;;;5.30;99.90;;;;;;4911593;29;20102;-80
2021/12/12 04:20:52;;;;;;;34.58;19.60;;;6.00;99.90;;;;;;4923003;29;20218;-80
2021/12/12 04:23:21;;;;;;;31.95;19.23;;;5.70;99.90;;;;;;4906403;29;20489;-80
2021/12/12 04:25:47;;;;;;;31.55;19.33;;;5.40;99.90;;;;;;4906520;29;20056;-80
2021/12/12 04:28:13;;;;;;;32.08;19.52;;;5.30;99.90;;;;;;4895281;29;20043;-80
2021/12/12 04:30:39;;;;;;;36.17;19.95;;;6.80;99.90;;;;;;4910965;29;20143;-80
2021/12/12 04:33:06;;;;;;;25.92;18.65;;;5.30;99.90;;;;;;4921740;29;20130;-81
2021/12/12 04:35:32;;;;;;;30.40;19.10;;;6.20;99.90;;;;;;4927553;29;20204;-80
2021/12/12 04:37:59;;;;;;;31.48;19.30;;;5.30;99.90;;;;;;4919288;29;20051;-81
2021/12/12 04:40:29;;;;;;;29.15;19.83;;;5.40;99.90;;;;;;4903169;29;20120;-80
2021/12/12 04:42:57;;;;;;;28.30;18.30;;;5.40;99.90;;;;;;4921831;29;20059;-80
2021/12/12 04:45:47;;;;;;;31.90;18.30;;;5.40;99.90;;;;;;4926590;29;20614;-80
2021/12/12 04:51:27;;;;;;;28.23;17.27;;;5.40;99.90;;;;;;4922054;29;20079;-81
2021/12/12 04:54:02;;;;;;;27.38;17.60;;;5.40;99.90;;;;;;4922344;29;20083;-80
2021/12/12 04:56:30;;;;;;;27.15;16.95;;;5.40;99.90;;;;;;4921364;29;20128;-81
2021/12/12 04:59:22;;;;;;;28.48;18.42;;;5.40;99.90;;;;;;4921336;29;20055;-80
2021/12/12 05:01:50;;;;;;;25.83;17.77;;;5.40;99.90;;;;;;4938943;28;20056;-80
2021/12/12 05:04:19;;;;;;;29.48;18.63;;;5.40;99.90;;;;;;4920715;29;20043;-80
2021/12/12 05:07:11;;;;;;;30.08;18.67;;;6.00;99.90;;;;;;4927388;29;20067;-80
2021/12/12 05:09:46;;;;;;;30.77;18.48;;;5.50;99.90;;;;;;4919732;29;20477;-80
2021/12/12 05:12:29;;;;;;;26.20;16.95;;;5.40;99.90;;;;;;4922559;29;20064;-80
2021/12/12 05:15:05;;;;;;;29.70;18.08;;;5.50;99.90;;;;;;4911598;29;20079;-80
2021/12/12 05:17:38;;;;;;;29.38;18.23;;;5.60;99.90;;;;;;4921930;29;20056;-77
2021/12/12 05:20:10;;;;;;;30.67;17.98;;;5.50;99.90;;;;;;4923397;29;20723;-78
2021/12/12 05:22:50;;;;;;;31.20;18.90;;;5.50;99.90;;;;;;4921594;29;20117;-77
2021/12/12 05:25:26;;;;;;;29.20;18.60;;;5.90;99.90;;;;;;4920529;29;20047;-77
2021/12/12 05:27:54;;;;;;;31.88;18.02;;;5.50;99.90;;;;;;4921969;29;20056;-77
2021/12/12 05:30:27;;;;;;;27.15;17.17;;;5.60;99.90;;;;;;4925517;29;20051;-77
2021/12/12 05:32:54;;;;;;;32.00;18.90;;;5.60;99.90;;;;;;4937300;29;20127;-77
2021/12/12 05:35:23;;;;;;;32.08;18.20;;;6.00;99.90;;;;;;4909828;29;20077;-77
2021/12/12 05:37:51;;;;;;;33.70;18.90;;;5.60;99.90;;;;;;4921294;29;20047;-77
2021/12/12 05:40:20;;;;;;;28.13;17.42;;;5.60;99.90;;;;;;4905112;29;20052;-77
2021/12/12 05:42:47;;;;;;;29.88;19.25;;;5.80;99.90;;;;;;4922290;29;20132;-79
2021/12/12 05:45:14;;;;;;;34.95;19.42;;;6.00;99.90;;;;;;4920786;29;20056;-78
2021/12/12 05:47:40;;;;;;;40.72;21.73;;;5.60;99.90;;;;;;4936635;28;20072;-79
2021/12/12 05:50:08;;;;;;;31.02;18.95;;;5.70;99.90;;;;;;4906288;29;20074;-79
2021/12/12 05:52:35;;;;;;;32.42;19.52;;;5.70;99.90;;;;;;4911343;29;20044;-78
2021/12/12 05:55:04;;;;;;;32.97;19.00;;;5.70;99.90;;;;;;4928530;29;20075;-78
2021/12/12 05:57:30;;;;;;;31.92;19.33;;;5.70;99.90;;;;;;4923288;29;20059;-78
2021/12/12 05:59:57;;;;;;;36.50;20.27;;;5.80;99.90;;;;;;4911408;29;20110;-78
2021/12/12 06:02:26;;;;;;;39.05;20.15;;;6.30;99.90;;;;;;4920875;29;20056;-78
2021/12/12 06:04:56;;;;;;;34.45;19.02;;;5.80;99.90;;;;;;4905340;29;20043;-78
2021/12/12 06:07:22;;;;;;;39.20;20.95;;;5.80;99.90;;;;;;4924458;29;20070;-78
2021/12/12 06:09:49;;;;;;;42.20;21.23;;;5.80;99.90;;;;;;4905336;29;20058;-78
2021/12/12 06:12:16;;;;;;;35.00;19.10;;;5.80;99.90;;;;;;4920037;29;20059;-78
2021/12/12 06:14:43;;;;;;;35.00;20.35;;;6.30;99.90;;;;;;4910815;29;20221;-78
2021/12/12 06:17:12;;;;;;;33.22;18.90;;;5.90;99.90;;;;;;4927294;29;20052;-78
2021/12/12 06:19:38;;;;;;;40.00;21.02;;;5.90;99.90;;;;;;4920490;29;20054;-78
2021/12/12 06:22:05;;;;;;;35.50;19.52;;;5.90;99.90;;;;;;4921040;29;20040;-78
2021/12/12 06:24:33;;;;;;;37.58;19.85;;;5.90;99.90;;;;;;4926429;29;20127;-78
2021/12/12 06:27:08;;;;;;;41.53;19.75;;;5.90;99.90;;;;;;4909860;29;20124;-78
2021/12/12 06:29:35;;;;;;;41.08;20.30;;;5.90;99.90;;;;;;4920280;29;20155;-78
2021/12/12 06:32:04;;;;;;;47.20;20.17;;;5.90;99.90;;;;;;4936491;29;20109;-77
2021/12/12 06:34:30;;;;;;;34.80;19.23;;;6.00;99.90;;;;;;4925103;29;20602;-78
2021/12/12 06:36:57;;;;;;;36.65;18.80;;;6.00;99.90;;;;;;4926769;29;20135;-79
2021/12/12 06:39:25;;;;;;;39.13;18.52;;;6.00;99.90;;;;;;4919910;29;20176;-78
2021/12/12 06:41:52;;;;;;;38.03;18.65;;;6.00;99.90;;;;;;4925771;29;20106;-77
2021/12/12 06:44:18;;;;;;;43.38;20.48;;;6.00;99.90;;;;;;4935678;29;20054;-78
2021/12/12 06:46:45;;;;;;;43.05;19.65;;;6.10;99.90;;;;;;4917894;29;20505;-77
2021/12/12 06:49:13;;;;;;;47.03;20.48;;;6.60;99.90;;;;;;4903866;29;20044;-77
2021/12/12 06:51:44;;;;;;;46.55;21.00;;;6.10;99.90;;;;;;4926752;29;20043;-77
2021/12/12 06:54:13;;;;;;;36.63;18.98;;;6.20;99.90;;;;;;4920430;29;20489;-77
2021/12/12 06:56:38;;;;;;;37.22;18.48;;;6.20;99.90;;;;;;4923697;29;20505;-77
2021/12/12 06:59:04;;;;;;;49.05;20.80;;;6.20;99.90;;;;;;4907491;29;20116;-80
2021/12/12 07:01:32;;;;;;;40.83;18.25;;;6.20;99.90;;;;;;4922096;29;20098;-79
2021/12/12 07:03:59;;;;;;;52.80;20.23;;;6.30;99.90;;;;;;4921452;29;20048;-79
2021/12/12 07:06:28;;;;;;;56.67;22.25;;;6.30;99.90;;;;;;4910779;29;20490;-79
2021/12/12 07:08:58;;;;;;;60.30;22.77;;;6.40;99.90;;;;;;4908115;29;20063;-79
2021/12/12 07:11:25;;;;;;;55.72;22.25;;;6.50;99.90;;;;;;4923916;29;20051;-79
2021/12/12 07:13:51;;;;;;;59.50;23.63;;;6.50;99.90;;;;;;4914529;29;20054;-79
2021/12/12 07:16:19;;;;;;;62.75;23.77;;;7.00;99.90;;;;;;4923156;29;20055;-79
2021/12/12 07:18:46;;;;;;;66.78;24.77;;;6.70;99.90;;;;;;4922883;29;20462;-79
2021/12/12 07:21:15;;;;;;;64.15;24.02;;;6.80;99.90;;;;;;4908073;29;20043;-80
2021/12/12 07:23:42;;;;;;;63.90;23.63;;;6.80;99.90;;;;;;4923186;29;20051;-77
2021/12/12 07:26:11;;;;;;;55.70;22.73;;;6.90;99.90;;;;;;4910234;29;20039;-77
2021/12/12 07:28:38;;;;;;;66.95;23.42;;;6.90;99.90;;;;;;4907107;29;20051;-77
2021/12/12 07:31:08;;;;;;;77.30;25.13;;;7.00;99.90;;;;;;4904497;29;20470;-77
2021/12/12 07:33:36;;;;;;;65.35;24.02;;;7.10;99.90;;;;;;4923574;29;20067;-77
2021/12/12 07:36:05;;;;;;;73.65;24.75;;;7.10;99.90;;;;;;4906928;29;20107;-79
2021/12/12 07:38:32;;;;;;;68.50;23.77;;;7.20;99.90;;;;;;4928238;29;20055;-77
2021/12/12 07:40:59;;;;;;;62.83;22.02;;;7.20;99.90;;;;;;4924728;29;20055;-77
2021/12/12 07:43:28;;;;;;;59.20;22.95;;;7.30;99.90;;;;;;4893242;29;20044;-78
2021/12/12 07:45:54;;;;;;;63.78;22.75;;;7.30;99.90;;;;;;4934689;29;20051;-77
2021/12/12 07:48:20;;;;;;;50.38;20.70;;;7.30;99.90;;;;;;4923821;29;20508;-77
2021/12/12 07:50:46;;;;;;;55.78;20.05;;;7.30;99.90;;;;;;4921324;29;20082;-77
2021/12/12 07:53:13;;;;;;;51.47;20.15;;;7.40;99.90;;;;;;4927607;29;20126;-77
2021/12/12 07:55:39;;;;;;;62.22;21.23;;;7.40;99.90;;;;;;4907621;29;20058;-78
2021/12/12 07:58:07;;;;;;;48.67;18.67;;;7.40;99.90;;;;;;4921119;29;20055;-78
2021/12/12 08:00:35;;;;;;;44.63;18.33;;;7.50;99.90;;;;;;4920687;29;20047;-77
2021/12/12 08:03:02;;;;;;;53.92;17.63;;;7.50;99.90;;;;;;4921825;29;20309;-78
2021/12/12 08:05:29;;;;;;;52.30;19.13;;;7.60;99.90;;;;;;4902302;29;20051;-78
2021/12/12 08:08:01;;;;;;;43.30;18.20;;;7.60;99.90;;;;;;4924453;29;20134;-78
2021/12/12 08:10:28;;;;;;;41.20;16.55;;;7.60;99.90;;;;;;4921155;29;20051;-78
2021/12/12 08:12:54;;;;;;;45.55;17.33;;;7.70;99.90;;;;;;4922953;29;20481;-79
2021/12/12 08:15:21;;;;;;;45.30;17.42;;;7.70;99.90;;;;;;4921796;29;20494;-78
2021/12/12 08:17:48;;;;;;;45.08;16.88;;;7.70;99.90;;;;;;4927164;29;20105;-78
2021/12/12 08:20:16;;;;;;;37.50;15.45;;;7.70;99.90;;;;;;4907865;29;20064;-78
2021/12/12 08:22:43;;;;;;;39.33;15.95;;;7.80;99.90;;;;;;4921843;29;20052;-78
2021/12/12 08:25:12;;;;;;;41.28;15.48;;;7.80;99.90;;;;;;4921421;29;20048;-77
2021/12/12 08:27:39;;;;;;;45.55;15.38;;;7.80;99.90;;;;;;4920252;29;20139;-78
2021/12/12 08:30:06;;;;;;;36.35;14.75;;;7.90;99.90;;;;;;4920550;29;20055;-78
2021/12/12 08:32:32;;;;;;;37.40;14.50;;;7.90;99.90;;;;;;4936815;29;20597;-78
2021/12/12 08:34:58;;;;;;;43.20;14.95;;;7.90;99.90;;;;;;4917073;29;20051;-78
2021/12/12 08:37:27;;;;;;;42.72;16.20;;;7.90;99.90;;;;;;4917446;29;20074;-78
2021/12/12 08:39:54;;;;;;;40.95;15.43;;;8.00;99.90;;;;;;4928179;29;20044;-78
2021/12/12 08:42:20;;;;;;;37.83;15.55;;;8.00;99.90;;;;;;4924550;29;20781;-78
2021/12/12 08:44:47;;;;;;;37.25;15.52;;;8.00;99.90;;;;;;4921186;29;20454;-78
2021/12/12 08:47:13;;;;;;;35.67;14.50;;;8.00;99.90;;;;;;4909689;29;20060;-78
2021/12/12 08:49:41;;;;;;;32.72;13.40;;;8.00;99.90;;;;;;4894618;29;20043;-79
2021/12/12 08:52:17;;;;;;;33.13;13.48;;;8.00;99.90;;;;;;4936825;28;20126;-78
2021/12/12 08:54:47;;;;;;;39.90;14.43;;;8.00;99.90;;;;;;4921885;29;20055;-78
2021/12/12 09:00:22;;;;;;;31.88;12.73;;;8.00;99.90;;;;;;4916210;29;20124;-79
2021/12/12 09:02:49;;;;;;;28.38;12.05;;;8.00;99.90;;;;;;4921804;29;20059;-79
2021/12/12 09:05:21;;;;;;;33.53;13.65;;;8.00;99.90;;;;;;4904736;29;20040;-78
2021/12/12 09:07:51;;;;;;;37.60;13.05;;;8.00;99.90;;;;;;4917355;29;20051;-79
2021/12/12 09:10:17;;;;;;;42.90;14.27;;;8.00;99.90;;;;;;4921477;29;20092;-79
2021/12/12 09:12:54;;;;;;;42.35;14.15;;;8.00;99.90;;;;;;4920460;29;20161;-78
2021/12/12 09:15:29;;;;;;;49.50;14.43;;;8.00;99.90;;;;;;4920253;29;20099;-79
2021/12/12 09:18:00;;;;;;;44.67;15.43;;;8.00;99.90;;;;;;4921301;29;20503;-79
2021/12/12 09:20:36;;;;;;;48.08;14.70;;;8.00;99.90;;;;;;4925287;29;20328;-79
2021/12/12 09:23:07;;;;;;;45.95;14.57;;;8.00;99.90;;;;;;4920678;29;20062;-78
2021/12/12 09:25:50;;;;;;;30.33;12.13;;;8.00;99.90;;;;;;4925534;29;20540;-78
2021/12/12 09:28:41;;;;;;;39.00;12.70;;;8.00;99.90;;;;;;4921168;29;20055;-78
2021/12/12 09:31:14;;;;;;;31.30;11.98;;;8.00;99.90;;;;;;4936024;28;20088;-78
2021/12/12 09:33:46;;;;;;;33.22;11.27;;;8.00;99.90;;;;;;4921156;29;20134;-78
2021/12/12 09:36:29;;;;;;;43.33;12.90;;;8.00;99.90;;;;;;4920074;29;20675;-78
2021/12/12 09:39:00;;;;;;;47.08;13.10;;;8.00;99.90;;;;;;4927206;29;20126;-78
2021/12/12 09:41:49;;;;;;;47.60;11.68;;;8.10;99.90;;;;;;4920387;29;20572;-78
2021/12/12 09:44:39;;;;;;;38.88;11.85;;;8.10;99.90;;;;;;4921343;29;20059;-78
2021/12/12 09:47:30;;;;;;;35.55;11.57;;;8.10;99.90;;;;;;4921401;29;20470;-78
2021/12/12 09:53:33;;;;;;;31.65;9.82;;;8.10;99.90;;;;;;4920216;29;20677;-78
2021/12/12 09:56:03;;;;;;;48.97;12.30;;;8.20;99.90;;;;;;4905109;29;20131;-78
2021/12/12 09:58:51;;;;;;;28.05;11.05;;;8.20;99.90;;;;;;4926360;29;20158;-78
2021/12/12 10:01:25;;;;;;;41.60;10.95;;;8.20;99.90;;;;;;4903859;29;20051;-78
2021/12/12 10:04:09;;;;;;;35.90;10.77;;;8.20;99.90;;;;;;4920474;29;20059;-78
2021/12/12 10:07:03;;;;;;;28.52;9.32;;;8.30;99.90;;;;;;4911054;29;20064;-78
2021/12/12 10:09:41;;;;;;;29.45;10.02;;;8.30;99.90;;;;;;4901827;29;20457;-78
2021/12/12 10:12:12;;;;;;;35.42;9.35;;;8.20;99.90;;;;;;4900583;29;20052;-78
2021/12/12 10:14:49;;;;;;;26.05;9.38;;;8.30;99.90;;;;;;4905949;29;20041;-78
2021/12/12 10:17:42;;;;;;;30.85;8.95;;;8.30;99.90;;;;;;4902186;29;20048;-78
2021/12/12 10:20:23;;;;;;;27.67;9.55;;;8.30;99.90;;;;;;4900623;29;20470;-78
2021/12/12 10:23:12;;;;;;;27.90;8.60;;;8.30;99.90;;;;;;4907901;29;20619;-78
2021/12/12 10:25:47;;;;;;;24.15;8.23;;;8.30;99.90;;;;;;4900564;29;20531;-78
2021/12/12 10:28:44;;;;;;;43.80;9.10;;;8.30;99.90;;;;;;4885731;29;20067;-78
2021/12/12 10:31:39;;;;;;;23.58;8.35;;;8.30;99.90;;;;;;4900506;29;20296;-78
2021/12/12 10:34:11;;;;;;;34.15;7.88;;;8.30;99.90;;;;;;4909559;29;20086;-78
2021/12/12 10:37:00;;;;;;;38.25;9.07;;;8.30;99.90;;;;;;4906906;29;20047;-78
2021/12/12 10:39:54;;;;;;;21.98;7.60;;;8.30;99.90;;;;;;4889464;29;20095;-79
2021/12/12 10:42:29;;;;;;;26.27;8.07;;;8.30;99.90;;;;;;4903476;29;20052;-78
2021/12/12 10:45:09;;;;;;;21.05;6.88;;;8.40;99.90;;;;;;4890121;29;20055;-78
2021/12/12 10:48:01;;;;;;;27.48;7.75;;;8.30;99.90;;;;;;4901518;29;20037;-77
2021/12/12 10:50:48;;;;;;;54.63;9.05;;;8.30;99.90;;;;;;4904439;29;20055;-78
2021/12/12 10:53:34;;;;;;;34.15;7.93;;;8.30;99.90;;;;;;4889596;29;20406;-78
2021/12/12 10:56:14;;;;;;;42.75;7.90;;;8.30;99.90;;;;;;4906730;29;20055;-78
2021/12/12 10:58:58;;;;;;;49.15;8.95;;;8.30;99.90;;;;;;4911637;29;20075;-78
2021/12/12 11:01:32;;;;;;;41.83;8.30;;;8.30;99.90;;;;;;4908457;29;20040;-78
2021/12/12 11:04:12;;;;;;;29.15;7.43;;;8.30;99.90;;;;;;4910500;29;20434;-78
2021/12/12 11:06:42;;;;;;;29.23;7.90;;;8.30;99.90;;;;;;4918189;29;20055;-78
2021/12/12 11:09:14;;;;;;;36.78;8.10;;;8.40;99.90;;;;;;4909552;29;20052;-77
2021/12/12 11:11:46;;;;;;;38.40;8.27;;;8.40;99.90;;;;;;4906712;29;20044;-77
2021/12/12 11:14:18;;;;;;;40.33;8.68;;;8.40;99.90;;;;;;4924183;29;20179;-78
2021/12/12 11:16:59;;;;;;;49.80;9.00;;;8.50;99.90;;;;;;4921895;29;20052;-77
2021/12/12 11:19:44;;;;;;;26.65;6.90;;;8.60;99.90;;;;;;4940141;29;20044;-78
2021/12/12 11:22:15;;;;;;;28.60;7.47;;;8.60;99.90;;;;;;4924822;29;20119;-78
2021/12/12 11:24:48;;;;;;;31.30;7.72;;;8.60;99.90;;;;;;4908944;29;20647;-78
2021/12/12 11:27:24;;;;;;;40.03;8.40;;;8.70;99.90;;;;;;4927533;29;20048;-78
2021/12/12 11:29:56;;;;;;;57.10;9.10;;;8.70;99.90;;;;;;4922126;29;20048;-78
2021/12/12 11:32:27;;;;;;;35.70;7.72;;;8.80;99.90;;;;;;4927199;29;20059;-78
2021/12/12 11:34:56;;;;;;;38.20;8.20;;;8.80;99.90;;;;;;4922617;29;20048;-78
2021/12/12 11:37:51;;;;;;;29.70;7.93;;;8.80;99.90;;;;;;4922173;29;20056;-78
2021/12/12 11:40:29;;;;;;;25.55;7.15;;;8.80;99.90;;;;;;4924113;29;20052;-79
2021/12/12 11:43:25;;;;;;;28.85;7.03;;;8.80;99.90;;;;;;4934991;28;20127;-79
2021/12/12 11:45:57;;;;;;;38.70;7.57;;;8.80;99.90;;;;;;4923112;29;20055;-78
2021/12/12 11:48:46;;;;;;;32.53;6.60;;;8.70;99.90;;;;;;4917678;29;20051;-78
2021/12/12 11:51:35;;;;;;;48.88;8.05;;;8.60;99.90;;;;;;4906532;29;20058;-78
2021/12/12 11:54:12;;;;;;;28.85;6.15;;;8.70;99.90;;;;;;4922935;29;20130;-77
2021/12/12 11:56:50;;;;;;;46.65;6.90;;;8.70;99.90;;;;;;4906882;29;20056;-77
2021/12/12 11:59:25;;;;;;;30.13;5.88;;;8.70;99.90;;;;;;4926619;29;20055;-78
2021/12/12 12:02:25;;;;;;;53.22;6.82;;;8.60;99.90;;;;;;4920620;29;20134;-78
2021/12/12 12:04:57;;;;;;;34.13;6.43;;;8.70;99.90;;;;;;4906031;29;20087;-78
2021/12/12 12:07:50;;;;;;;45.47;7.88;;;8.80;99.90;;;;;;4926785;29;20078;-78
2021/12/12 12:11:00;;;;;;;39.90;5.78;;;8.80;99.90;;;;;;4919904;29;20058;-79
2021/12/12 12:13:48;;;;;;;41.80;6.28;;;8.80;99.90;;;;;;4936610;29;20126;-77
2021/12/12 12:16:28;;;;;;;56.72;6.88;;;8.90;99.90;;;;;;4922313;29;20431;-79
2021/12/12 12:19:06;;;;;;;59.65;8.65;;;8.90;99.90;;;;;;4905481;29;20095;-78
2021/12/12 12:22:08;;;;;;;61.92;6.95;;;8.90;99.90;;;;;;4921596;29;20158;-78
2021/12/12 12:24:43;;;;;;;61.15;7.05;;;9.70;99.90;;;;;;4921318;29;20494;-78
2021/12/12 12:27:28;;;;;;;40.65;6.35;;;8.80;99.90;;;;;;4922584;29;20051;-77
2021/12/12 12:30:16;;;;;;;45.88;6.57;;;8.80;99.90;;;;;;4926349;29;20047;-77
2021/12/12 12:32:51;;;;;;;52.90;6.90;;;8.80;99.90;;;;;;4903973;29;20056;-77
2021/12/12 12:35:42;;;;;;;48.70;7.25;;;9.20;99.90;;;;;;4920890;29;20052;-78
2021/12/12 12:39:02;;;;;;;44.88;7.50;;;8.70;99.90;;;;;;4879301;29;20071;-78
2021/12/12 12:42:02;;;;;;;83.75;8.57;;;8.70;99.90;;;;;;4921979;29;20048;-78
2021/12/12 12:44:49;;;;;;;67.68;8.05;;;8.70;99.90;;;;;;4923570;29;20592;-79
2021/12/12 12:47:40;;;;;;;66.00;7.65;;;8.70;99.90;;;;;;4907647;29;20075;-78
2021/12/12 12:50:33;;;;;;;76.40;9.43;;;8.70;99.90;;;;;;4907118;29;20062;-78
2021/12/12 12:53:20;;;;;;;73.68;9.13;;;8.60;99.90;;;;;;4907417;29;20058;-78
2021/12/12 12:56:17;;;;;;;67.50;8.57;;;8.60;99.90;;;;;;4921781;29;20048;-78
2021/12/12 12:59:07;;;;;;;61.30;8.70;;;8.60;99.90;;;;;;4904832;29;20047;-76
2021/12/12 13:01:46;;;;;;;80.28;9.50;;;8.70;99.90;;;;;;4903380;29;20066;-81
2021/12/12 13:04:35;;;;;;;62.53;9.07;;;8.70;99.90;;;;;;4916946;29;20051;-80
2021/12/12 13:07:28;;;;;;;86.72;10.40;;;8.60;99.90;;;;;;4903786;29;20082;-81
2021/12/12 13:10:11;;;;;;;77.95;9.70;;;8.60;99.90;;;;;;4925803;29;20170;-80
2021/12/12 13:13:11;;;;;;;78.70;10.02;;;8.60;99.90;;;;;;4920627;29;20059;-80
2021/12/12 13:15:45;;;;;;;84.38;10.10;;;8.50;99.90;;;;;;4935090;29;20099;-80
2021/12/12 13:18:42;;;;;;;118.88;12.18;;;8.50;99.90;;;;;;4921288;29;20155;-79
2021/12/12 13:21:11;;;;;;;60.72;8.75;;;8.50;99.90;;;;;;4922318;29;20078;-79
2021/12/12 13:23:38;;;;;;;56.15;10.15;;;8.50;99.90;;;;;;4923194;29;20052;-80
2021/12/12 13:26:13;;;;;;;48.95;8.95;;;8.50;99.90;;;;;;4920265;29;20072;-79
2021/12/12 13:29:14;;;;;;;48.78;9.30;;;8.50;99.90;;;;;;4920566;29;20047;-80
2021/12/12 13:31:58;;;;;;;56.35;9.60;;;8.50;99.90;;;;;;4936257;29;20073;-80
2021/12/12 13:34:46;;;;;;;56.13;9.68;;;8.50;99.90;;;;;;4937125;28;20055;-80
2021/12/12 13:37:27;;;;;;;31.67;9.57;;;8.50;99.90;;;;;;4919753;29;20086;-80